Погода Малая Ржавана неделю

Смоленская область, Россия

23 - 29 мая
  • 23мая
    Сегодня
    +7°
    +24°
    Ясно и безоблачно
    ВремяПогодаТемператураВлажностьДавлениеВетер, м/сВероятность осадков
    00:00Ясно и безоблачно+12°C85 %752 мм1.4 м/с2 %
    03:00Ясно и безоблачно+10°C54 %752 мм1.1 м/с2 %
    06:00Ясно и безоблачно+10°C61 %753 мм1.3 м/с2 %
    09:00Ясно и безоблачно+17°C56 %754 мм1.8 м/с2 %
    12:00Ясно и безоблачно+23°C40 %755 мм2.9 м/с2 %
    15:00Ясно и безоблачно+23°C37 %755 мм2.6 м/с2 %
    18:00Ясно и безоблачно+24°C39 %754 мм2.4 м/с2 %
    21:00Ясно и безоблачно+17°C51 %756 мм0.9 м/с2 %
  • 24мая
    Пятница
    +6°
    +22°
    Ясно и безоблачно
    ВремяПогодаТемператураВлажностьДавлениеВетер, м/сВероятность осадков
    00:00Ясно и безоблачно+12°C55 %757 мм1.2 м/с2 %
    03:00Ясно и безоблачно+8°C60 %757 мм0.8 м/с2 %
    06:00Ясно и безоблачно+9°C65 %758 мм1.0 м/с2 %
    09:00Практически безоблачно+16°C48 %759 мм1.9 м/с2 %
    12:00Ясно и безоблачно+21°C32 %759 мм2.5 м/с2 %
    15:00Ясно и безоблачно+21°C30 %758 мм2.3 м/с2 %
    18:00Ясно и безоблачно+22°C31 %757 мм2.0 м/с2 %
    21:00Ясно и безоблачно+15°C50 %757 мм0.5 м/с2 %
  • 25мая
    Суббота
    +7°
    +25°
    Ясно и безоблачно
    ВремяПогодаТемператураВлажностьДавлениеВетер, м/сВероятность осадков
    00:00Ясно и безоблачно+10°C53 %757 мм0.9 м/с2 %
    03:00Ясно и безоблачно+7°C67 %757 мм0.6 м/с2 %
    06:00Ясно и безоблачно+8°C73 %757 мм0.7 м/с2 %
    09:00Ясно и безоблачно+16°C59 %757 мм1.1 м/с2 %
    12:00Ясно и безоблачно+23°C46 %757 мм1.8 м/с2 %
    15:00Ясно и безоблачно+23°C39 %756 мм1.7 м/с2 %
    18:00Ясно и безоблачно+24°C41 %755 мм1.6 м/с2 %
    21:00Ясно и безоблачно+16°C68 %754 мм0.3 м/с2 %
  • 26мая
    Воскресенье
    +12°
    +28°
    Облачно с прояснениями
    ВремяПогодаТемператураВлажностьДавлениеВетер, м/сВероятность осадков
    00:00Ясно и безоблачно+11°C70 %754 мм0.4 м/с2 %
    03:00Ясно и безоблачно+8°C81 %754 мм0.2 м/с2 %
    06:00Ясно и безоблачно+10°C79 %755 мм0.3 м/с2 %
    09:00Ясно и безоблачно+19°C60 %755 мм0.3 м/с2 %
    12:00Ясно и безоблачно+25°C39 %755 мм1.4 м/с2 %
    15:00Облачно с прояснениями+26°C37 %754 мм1.2 м/с2 %
    18:00Небольшая облачность+27°C41 %754 мм1.4 м/с4 %
    21:00Практически безоблачно+20°C63 %754 мм0.2 м/с3 %
  • 27мая
    Понедельник
    +11°
    +26°
    Практически безоблачно
    ВремяПогодаТемператураВлажностьДавлениеВетер, м/сВероятность осадков
    00:00Небольшая облачность+15°C75 %754 мм0.4 м/с2 %
    03:00Ясно и безоблачно+12°C88 %755 мм0.2 м/с2 %
    06:00Ясно и безоблачно+12°C92 %755 мм0.6 м/с2 %
    09:00Ясно и безоблачно+20°C76 %756 мм0.6 м/с2 %
    12:00Практически безоблачно+25°C60 %756 мм1.4 м/с9 %
    15:00Практически безоблачно+25°C52 %756 мм1.4 м/с19 %
    18:00Ясно и безоблачно+25°C48 %755 мм1.1 м/с18 %
    21:00Практически безоблачно+20°C74 %755 мм0.2 м/с6 %
Мы используем cookies
Соглашаюсь